createdAt,value
2023-11-08T00:02:16.810Z,0.80
2023-11-08T00:04:44.325Z,0.90
2023-11-08T00:07:11.769Z,0.85
2023-11-08T00:09:39.761Z,0.98
2023-11-08T00:12:07.606Z,1.10
2023-11-08T00:14:35.883Z,0.90
2023-11-08T00:17:04.526Z,1.00
2023-11-08T00:19:32.533Z,1.00
2023-11-08T00:22:00.256Z,0.70
2023-11-08T00:24:28.548Z,0.90
2023-11-08T00:26:56.150Z,1.08
2023-11-08T00:29:26.393Z,0.82
2023-11-08T00:31:53.804Z,1.00
2023-11-08T00:34:21.792Z,1.00
2023-11-08T00:36:51.501Z,0.90
2023-11-08T00:39:19.899Z,0.98
2023-11-08T00:41:47.663Z,0.90
2023-11-08T00:44:15.258Z,0.85
2023-11-08T00:46:42.850Z,0.65
2023-11-08T00:49:10.855Z,0.80
2023-11-08T00:51:38.440Z,0.98
2023-11-08T00:54:06.597Z,1.02
2023-11-08T00:56:34.024Z,1.08
2023-11-08T00:59:02.323Z,0.90
2023-11-08T01:01:32.248Z,0.80
2023-11-08T01:04:00.785Z,0.90
2023-11-08T01:06:29.680Z,0.88
2023-11-08T01:08:57.298Z,0.80
2023-11-08T01:11:24.767Z,0.80
2023-11-08T01:13:53.192Z,0.90
2023-11-08T01:16:22.293Z,0.85
2023-11-08T01:18:52.916Z,0.98
2023-11-08T01:21:20.452Z,1.00
2023-11-08T01:23:52.823Z,0.80
2023-11-08T01:26:21.788Z,0.90
2023-11-08T01:28:49.735Z,0.77
2023-11-08T01:31:17.156Z,0.80
2023-11-08T01:33:45.014Z,0.90
2023-11-08T01:36:13.314Z,0.88
2023-11-08T01:38:41.223Z,0.88
2023-11-08T01:41:08.692Z,0.90
2023-11-08T01:43:37.319Z,0.80
2023-11-08T01:46:12.532Z,0.85
2023-11-08T01:48:43.382Z,0.75
2023-11-08T01:51:12.095Z,0.73
2023-11-08T01:53:42.041Z,0.90
2023-11-08T01:56:12.078Z,0.90
2023-11-08T01:58:42.847Z,1.00
2023-11-08T02:01:14.721Z,0.70
2023-11-08T02:03:42.865Z,0.93
2023-11-08T02:06:14.494Z,0.68
2023-11-08T02:08:42.398Z,0.98
2023-11-08T02:11:10.647Z,1.08
2023-11-08T02:13:38.221Z,0.82
2023-11-08T02:16:06.322Z,0.85
2023-11-08T02:18:34.117Z,1.00
2023-11-08T02:21:02.793Z,0.85
2023-11-08T02:23:33.268Z,0.85
2023-11-08T02:26:01.026Z,0.80
2023-11-08T02:28:28.648Z,0.80
2023-11-08T02:30:56.560Z,0.90
2023-11-08T02:33:25.649Z,0.90
2023-11-08T02:35:53.909Z,0.88
2023-11-08T02:38:21.749Z,0.80
2023-11-08T02:40:49.302Z,0.70
2023-11-08T02:43:17.689Z,0.95
2023-11-08T02:45:48.375Z,1.00
2023-11-08T02:48:16.123Z,0.70
2023-11-08T02:50:43.543Z,0.77
2023-11-08T02:53:11.112Z,0.90
2023-11-08T02:55:38.861Z,0.77
2023-11-08T02:58:06.574Z,0.80
2023-11-08T03:00:34.637Z,0.70
2023-11-08T03:03:02.263Z,0.90
2023-11-08T03:05:33.064Z,0.80
2023-11-08T03:08:00.781Z,0.77
2023-11-08T03:10:28.315Z,0.70
2023-11-08T03:12:58.560Z,0.80
2023-11-08T03:15:26.094Z,0.70
2023-11-08T03:17:54.044Z,0.70
2023-11-08T03:20:21.604Z,0.60
2023-11-08T03:22:49.675Z,0.70
2023-11-08T03:25:20.073Z,0.93
2023-11-08T03:27:48.441Z,0.70
2023-11-08T03:30:18.216Z,0.65
2023-11-08T03:32:46.122Z,0.70
2023-11-08T03:35:16.631Z,0.73
2023-11-08T03:37:44.746Z,0.70
2023-11-08T03:40:14.056Z,0.90
2023-11-08T03:42:45.873Z,0.60
2023-11-08T03:45:14.610Z,0.80
2023-11-08T03:47:44.816Z,0.70
2023-11-08T03:50:13.559Z,0.80
2023-11-08T03:52:41.235Z,0.55
2023-11-08T03:55:09.448Z,0.75
2023-11-08T03:57:37.345Z,0.80
2023-11-08T04:00:05.669Z,0.70
2023-11-08T04:02:40.129Z,0.70
2023-11-08T04:05:07.995Z,0.63
2023-11-08T04:07:35.540Z,0.90
2023-11-08T04:10:03.245Z,0.80
2023-11-08T04:12:31.040Z,1.00
2023-11-08T04:14:58.550Z,0.75
2023-11-08T04:17:26.115Z,1.08
2023-11-08T04:19:55.698Z,0.90
2023-11-08T04:22:23.313Z,0.60
2023-11-08T04:24:50.720Z,0.90
2023-11-08T04:27:18.402Z,0.80
2023-11-08T04:29:45.860Z,0.85
2023-11-08T04:32:13.472Z,0.80
2023-11-08T04:34:40.898Z,0.77
2023-11-08T04:37:10.902Z,0.60
2023-11-08T04:39:38.704Z,0.60
2023-11-08T04:42:06.631Z,0.70
2023-11-08T04:44:34.994Z,0.90
2023-11-08T04:47:02.836Z,0.70
2023-11-08T04:49:31.648Z,0.90
2023-11-08T04:51:59.127Z,0.70
2023-11-08T04:54:29.770Z,0.73
2023-11-08T04:57:03.285Z,0.70
2023-11-08T04:59:32.183Z,0.95
2023-11-08T05:02:00.774Z,0.60
2023-11-08T05:04:29.056Z,0.90
2023-11-08T05:06:56.655Z,0.82
2023-11-08T05:09:24.221Z,0.80
2023-11-08T05:11:51.775Z,0.60
2023-11-08T05:14:19.289Z,0.63
2023-11-08T05:16:49.120Z,0.90
2023-11-08T05:19:17.416Z,1.05
2023-11-08T05:21:51.487Z,0.90
2023-11-08T05:24:19.477Z,0.80
2023-11-08T05:26:47.174Z,0.80
2023-11-08T05:29:14.927Z,0.82
2023-11-08T05:31:42.554Z,0.90
2023-11-08T05:34:09.941Z,0.88
2023-11-08T05:36:38.502Z,0.70
2023-11-08T05:39:06.156Z,0.88
2023-11-08T05:41:33.805Z,0.60
2023-11-08T05:44:01.623Z,0.80
2023-11-08T05:46:29.771Z,0.63
2023-11-08T05:48:58.666Z,0.60
2023-11-08T05:51:28.728Z,0.80
2023-11-08T05:53:56.365Z,0.77
2023-11-08T05:56:23.736Z,0.52
2023-11-08T05:58:51.664Z,0.70
2023-11-08T06:01:22.093Z,0.60
2023-11-08T06:03:56.415Z,0.68
2023-11-08T06:06:26.681Z,0.90
2023-11-08T06:08:54.859Z,0.77
2023-11-08T06:11:23.655Z,0.80
2023-11-08T06:13:51.241Z,0.80
2023-11-08T06:16:18.925Z,0.82
2023-11-08T06:18:46.450Z,1.00
2023-11-08T06:21:15.039Z,0.90
2023-11-08T06:23:45.079Z,1.02
2023-11-08T06:26:16.768Z,1.00
2023-11-08T06:28:47.444Z,0.95
2023-11-08T06:31:14.947Z,0.88
2023-11-08T06:33:42.614Z,1.00
2023-11-08T06:36:11.148Z,0.93
2023-11-08T06:38:40.955Z,0.90
2023-11-08T06:41:08.621Z,0.98
2023-11-08T06:43:35.926Z,0.90
2023-11-08T06:46:06.406Z,0.90
2023-11-08T06:48:33.803Z,1.00
2023-11-08T06:51:02.186Z,1.25
2023-11-08T06:53:30.002Z,1.17
2023-11-08T06:55:59.193Z,0.93
2023-11-08T06:58:32.190Z,1.13
2023-11-08T07:01:09.231Z,1.10
2023-11-08T07:03:40.511Z,1.10
2023-11-08T07:06:09.203Z,1.17
2023-11-08T07:08:36.683Z,1.23
2023-11-08T07:11:04.418Z,1.10
2023-11-08T07:13:31.846Z,1.10
2023-11-08T07:16:00.599Z,1.10
2023-11-08T07:18:28.381Z,1.63
2023-11-08T07:20:56.052Z,1.48
2023-11-08T07:23:24.134Z,1.23
2023-11-08T07:25:51.865Z,1.05
2023-11-08T07:28:19.814Z,1.27
2023-11-08T07:30:47.578Z,1.20
2023-11-08T07:33:15.275Z,1.15
2023-11-08T07:35:43.762Z,1.05
2023-11-08T07:38:11.149Z,1.50
2023-11-08T07:40:38.889Z,1.13
2023-11-08T07:43:06.343Z,1.20
2023-11-08T07:45:36.230Z,1.20
2023-11-08T07:48:04.693Z,1.38
2023-11-08T07:50:32.613Z,1.60
2023-11-08T07:53:02.507Z,1.35
2023-11-08T07:55:30.240Z,1.10
2023-11-08T07:57:57.634Z,1.10
2023-11-08T08:00:25.474Z,1.00
2023-11-08T08:02:53.411Z,1.33
2023-11-08T08:05:21.455Z,1.40
2023-11-08T08:07:50.374Z,1.30
2023-11-08T08:10:18.090Z,1.35
2023-11-08T08:12:48.513Z,1.27
2023-11-08T08:17:47.193Z,1.20
2023-11-08T08:20:15.303Z,1.25
2023-11-08T08:22:43.777Z,1.17
2023-11-08T08:25:13.326Z,1.10
2023-11-08T08:27:41.765Z,1.40
2023-11-08T08:30:12.485Z,1.50
2023-11-08T08:32:41.722Z,1.30
2023-11-08T08:35:09.715Z,1.08
2023-11-08T08:37:39.740Z,1.10
2023-11-08T08:40:12.162Z,1.30
2023-11-08T08:42:41.260Z,1.30
2023-11-08T08:45:12.142Z,1.10
2023-11-08T08:47:44.891Z,1.02
2023-11-08T08:50:14.611Z,1.23
2023-11-08T08:52:43.454Z,1.00
2023-11-08T08:55:12.255Z,1.08
2023-11-08T08:57:42.805Z,1.30
2023-11-08T09:00:11.204Z,1.00
2023-11-08T09:02:42.216Z,1.00
2023-11-08T09:05:10.660Z,1.10
2023-11-08T09:07:38.386Z,1.10
2023-11-08T09:10:06.947Z,0.93
2023-11-08T09:12:34.532Z,0.90
2023-11-08T09:15:04.089Z,0.90
2023-11-08T09:17:32.709Z,0.88
2023-11-08T09:20:00.614Z,1.10
2023-11-08T09:22:30.408Z,0.93
2023-11-08T09:24:58.985Z,0.85
2023-11-08T09:27:27.254Z,1.00
2023-11-08T09:29:55.089Z,0.70
2023-11-08T09:32:22.608Z,1.05
2023-11-08T09:34:52.347Z,0.90
2023-11-08T09:37:20.015Z,0.90
2023-11-08T09:39:52.164Z,0.93
2023-11-08T09:42:22.167Z,0.95
2023-11-08T09:44:49.894Z,1.10
2023-11-08T09:47:17.509Z,1.05
2023-11-08T09:49:51.896Z,1.00
2023-11-08T09:52:21.990Z,0.70
2023-11-08T09:54:49.472Z,0.90
2023-11-08T09:57:22.727Z,0.90
2023-11-08T10:02:19.719Z,0.80
2023-11-08T10:04:48.724Z,0.90
2023-11-08T10:07:16.507Z,0.88
2023-11-08T10:09:48.527Z,1.00
2023-11-08T10:12:26.354Z,0.77
2023-11-08T10:15:03.631Z,0.80
2023-11-08T10:19:30.775Z,0.90
2023-11-08T10:20:37.799Z,0.77
2023-11-08T10:23:09.839Z,0.70
2023-11-08T10:25:40.132Z,1.00
2023-11-08T10:28:09.046Z,0.80
2023-11-08T10:31:05.266Z,0.80
2023-11-08T10:34:15.614Z,0.80
2023-11-08T10:37:31.487Z,0.60
2023-11-08T10:40:32.561Z,0.80
2023-11-08T10:43:09.294Z,0.98
2023-11-08T10:46:20.704Z,0.80
2023-11-08T10:49:09.235Z,0.80
2023-11-08T10:51:47.999Z,0.70
2023-11-08T10:54:29.011Z,0.70
2023-11-08T10:57:04.714Z,0.80
2023-11-08T10:59:38.403Z,0.75
2023-11-08T11:02:30.135Z,0.65
2023-11-08T11:05:05.495Z,0.80
2023-11-08T11:07:39.872Z,0.80
2023-11-08T11:10:16.578Z,0.65
2023-11-08T11:13:16.676Z,0.90
2023-11-08T11:16:14.471Z,0.70
2023-11-08T11:18:52.383Z,0.60
2023-11-08T11:21:29.090Z,0.77
2023-11-08T11:23:56.565Z,0.75
2023-11-08T11:27:08.853Z,0.70
2023-11-08T11:29:46.095Z,0.70
2023-11-08T11:32:36.156Z,0.70
2023-11-08T11:35:10.385Z,1.02
2023-11-08T11:37:43.951Z,0.90
2023-11-08T11:40:16.074Z,0.90
2023-11-08T11:42:55.258Z,0.90
2023-11-08T11:45:25.739Z,0.80
2023-11-08T11:47:54.806Z,1.10
2023-11-08T11:50:25.470Z,1.05
2023-11-08T11:53:01.536Z,0.93
2023-11-08T11:55:32.801Z,0.98
2023-11-08T11:58:07.134Z,1.27
2023-11-08T12:00:37.251Z,1.05
2023-11-08T12:03:09.961Z,1.10
2023-11-08T12:05:41.256Z,1.40
2023-11-08T12:08:19.553Z,1.58
2023-11-08T12:11:11.230Z,2.17
2023-11-08T12:13:52.284Z,2.53
2023-11-08T12:16:25.806Z,3.25
2023-11-08T12:18:54.353Z,3.50
2023-11-08T12:21:23.615Z,5.22
2023-11-08T12:23:54.933Z,4.85
2023-11-08T12:26:22.735Z,4.85
2023-11-08T12:28:50.862Z,5.63
2023-11-08T12:31:23.934Z,5.70
2023-11-08T12:33:55.316Z,5.43
2023-11-08T12:36:24.862Z,5.07
2023-11-08T12:38:52.959Z,5.47
2023-11-08T12:41:20.872Z,5.20
2023-11-08T12:44:03.750Z,5.22
2023-11-08T12:46:41.047Z,5.57
2023-11-08T12:49:16.748Z,5.18
2023-11-08T12:51:46.450Z,4.50
2023-11-08T12:54:19.841Z,4.38
2023-11-08T12:56:48.578Z,4.50
2023-11-08T12:59:20.171Z,4.40
2023-11-08T13:01:52.345Z,4.10
2023-11-08T13:04:20.903Z,3.97
2023-11-08T13:06:49.621Z,3.97
2023-11-08T13:09:17.632Z,3.50
2023-11-08T13:11:45.147Z,3.78
2023-11-08T13:14:13.397Z,3.78
2023-11-08T13:16:42.361Z,3.55
2023-11-08T13:19:10.164Z,3.33
2023-11-08T13:21:37.951Z,3.20
2023-11-08T13:24:07.649Z,3.45
2023-11-08T13:26:36.725Z,3.05
2023-11-08T13:29:05.104Z,2.67
2023-11-08T13:31:33.044Z,2.83
2023-11-08T13:34:00.964Z,2.97
2023-11-08T13:36:29.208Z,2.58
2023-11-08T13:39:00.614Z,2.78
2023-11-08T13:41:42.488Z,2.55
2023-11-08T13:44:13.840Z,2.47
2023-11-08T13:46:43.672Z,2.35
2023-11-08T13:49:12.531Z,2.33
2023-11-08T13:51:46.009Z,2.33
2023-11-08T13:54:13.918Z,2.35
2023-11-08T13:56:41.335Z,2.33
2023-11-08T13:59:11.414Z,2.47
2023-11-08T14:01:42.422Z,2.10
2023-11-08T14:04:10.044Z,2.20
2023-11-08T14:06:37.894Z,2.00
2023-11-08T14:09:06.141Z,1.88
2023-11-08T14:11:34.551Z,2.20
2023-11-08T14:14:03.093Z,2.20
2023-11-08T14:16:30.854Z,1.65
2023-11-08T14:19:01.170Z,1.70
2023-11-08T14:21:29.012Z,1.63
2023-11-08T14:23:56.951Z,2.15
2023-11-08T14:26:24.476Z,1.95
2023-11-08T14:28:52.412Z,1.75
2023-11-08T14:31:23.154Z,1.35
2023-11-08T14:33:51.464Z,1.60
2023-11-08T14:36:19.225Z,1.40
2023-11-08T14:38:47.717Z,1.33
2023-11-08T14:41:15.669Z,1.30
2023-11-08T14:43:45.341Z,1.30
2023-11-08T14:46:15.302Z,1.48
2023-11-08T14:48:43.372Z,1.40
2023-11-08T14:51:11.358Z,1.40
2023-11-08T14:53:39.290Z,1.13
2023-11-08T14:56:08.957Z,1.20
2023-11-08T14:58:48.460Z,1.40
2023-11-08T15:01:16.319Z,1.20
2023-11-08T15:04:11.467Z,1.30
2023-11-08T15:06:47.286Z,1.58
2023-11-08T15:09:52.751Z,1.25
2023-11-08T15:12:06.005Z,1.03
2023-11-08T15:14:34.048Z,1.38
2023-11-08T15:17:01.596Z,1.60
2023-11-08T15:19:29.493Z,1.42
2023-11-08T15:21:57.832Z,1.58
2023-11-08T15:24:25.580Z,1.40
2023-11-08T15:26:53.984Z,1.27
2023-11-08T15:29:24.502Z,1.20
2023-11-08T15:31:52.045Z,1.20
2023-11-08T15:34:19.669Z,1.25
2023-11-08T15:36:47.732Z,1.10
2023-11-08T15:39:17.095Z,1.30
2023-11-08T15:41:47.474Z,1.40
2023-11-08T15:44:15.367Z,1.48
2023-11-08T15:46:43.097Z,1.27
2023-11-08T15:49:15.284Z,0.82
2023-11-08T15:51:43.731Z,1.23
2023-11-08T15:54:11.568Z,1.25
2023-11-08T15:56:41.377Z,1.20
2023-11-08T15:59:09.071Z,1.00
2023-11-08T16:01:37.208Z,1.00
2023-11-08T16:04:06.048Z,1.10
2023-11-08T16:06:33.805Z,1.10
2023-11-08T16:09:07.839Z,0.98
2023-11-08T16:11:38.857Z,1.10
2023-11-08T16:14:06.845Z,1.00
2023-11-08T16:16:41.856Z,1.05
2023-11-08T16:19:12.404Z,1.00
2023-11-08T16:21:40.611Z,1.02
2023-11-08T16:24:09.383Z,1.00
2023-11-08T16:26:37.188Z,0.90
2023-11-08T16:29:12.474Z,0.85
2023-11-08T16:32:33.010Z,1.20
2023-11-08T16:34:41.716Z,1.10
2023-11-08T16:37:10.598Z,1.10
2023-11-08T16:39:45.422Z,0.80
2023-11-08T16:42:12.844Z,1.08
2023-11-08T16:44:41.515Z,1.30
2023-11-08T16:47:08.943Z,1.48
2023-11-08T16:49:36.589Z,1.52
2023-11-08T16:52:04.256Z,1.65
2023-11-08T16:54:31.791Z,1.42
2023-11-08T16:56:59.300Z,1.60
2023-11-08T16:59:29.051Z,1.30
2023-11-08T17:01:57.547Z,1.30
2023-11-08T17:04:25.150Z,1.65
2023-11-08T17:06:52.835Z,1.23
2023-11-08T17:09:20.351Z,1.40
2023-11-08T17:11:47.902Z,1.25
2023-11-08T17:14:17.070Z,1.30
2023-11-08T17:19:17.134Z,1.63
2023-11-08T17:21:46.673Z,1.20
2023-11-08T17:24:16.477Z,1.30
2023-11-08T17:26:45.355Z,1.35
2023-11-08T17:29:15.552Z,1.48
2023-11-08T17:31:48.459Z,1.23
2023-11-08T17:34:16.241Z,1.55
2023-11-08T17:36:44.317Z,1.25
2023-11-08T17:39:12.792Z,1.35
2023-11-08T17:41:42.947Z,1.38
2023-11-08T17:44:12.430Z,1.42
2023-11-08T17:46:42.548Z,1.65
2023-11-08T17:49:10.174Z,1.42
2023-11-08T17:51:38.896Z,1.67
2023-11-08T17:54:07.228Z,1.27
2023-11-08T17:56:34.706Z,1.40
2023-11-08T17:59:02.634Z,1.55
2023-11-08T18:01:30.086Z,1.20
2023-11-08T18:03:57.771Z,1.20
2023-11-08T18:06:26.139Z,1.30
2023-11-08T18:08:57.977Z,1.20
2023-11-08T18:11:33.248Z,1.23
2023-11-08T18:14:02.071Z,1.30
2023-11-08T18:16:30.925Z,1.50
2023-11-08T18:19:01.261Z,1.85
2023-11-08T18:21:31.183Z,1.20
2023-11-08T18:24:10.765Z,1.30
2023-11-08T18:26:39.589Z,1.10
2023-11-08T18:29:07.269Z,1.40
2023-11-08T18:31:34.595Z,1.35
2023-11-08T18:34:02.618Z,1.17
2023-11-08T18:36:30.721Z,1.30
2023-11-08T18:39:01.814Z,1.15
2023-11-08T18:41:31.824Z,1.70
2023-11-08T18:43:59.400Z,1.60
2023-11-08T18:46:27.232Z,1.50
2023-11-08T18:48:55.108Z,1.60
2023-11-08T18:51:22.638Z,1.77
2023-11-08T18:53:50.671Z,2.10
2023-11-08T18:56:18.065Z,1.95
2023-11-08T18:58:48.560Z,2.33
2023-11-08T19:01:18.984Z,1.98
2023-11-08T19:03:47.594Z,1.90
2023-11-08T19:06:15.408Z,1.88
2023-11-08T19:08:43.019Z,1.80
2023-11-08T19:11:11.353Z,2.15
2023-11-08T19:13:39.112Z,2.00
2023-11-08T19:16:09.752Z,2.47
2023-11-08T19:18:38.798Z,2.05
2023-11-08T19:21:07.058Z,1.90
2023-11-08T19:23:34.852Z,2.00
2023-11-08T19:26:02.272Z,2.08
2023-11-08T19:28:30.793Z,2.10
2023-11-08T19:30:59.784Z,2.22
2023-11-08T19:33:28.107Z,2.60
2023-11-08T19:35:58.337Z,2.80
2023-11-08T19:38:26.882Z,2.80
2023-11-08T19:40:56.777Z,2.80
2023-11-08T19:43:25.774Z,2.78
2023-11-08T19:45:53.389Z,2.53
2023-11-08T19:48:21.348Z,2.58
2023-11-08T19:50:49.884Z,2.70
2023-11-08T19:53:17.523Z,2.30
2023-11-08T19:55:45.938Z,2.58
2023-11-08T19:58:16.201Z,2.50
2023-11-08T20:00:44.945Z,2.65
2023-11-08T20:03:13.913Z,3.08
2023-11-08T20:05:46.273Z,2.90
2023-11-08T20:08:14.531Z,2.60
2023-11-08T20:10:43.424Z,2.83
2023-11-08T20:13:11.572Z,2.92
2023-11-08T20:15:39.385Z,2.92
2023-11-08T20:18:09.635Z,2.83
2023-11-08T20:20:37.173Z,2.90
2023-11-08T20:23:04.695Z,2.78
2023-11-08T20:25:32.305Z,2.40
2023-11-08T20:28:00.261Z,2.60
2023-11-08T20:30:30.964Z,2.33
2023-11-08T20:32:59.278Z,2.55
2023-11-08T20:35:26.718Z,2.60
2023-11-08T20:37:54.334Z,2.63
2023-11-08T20:40:22.833Z,2.40
2023-11-08T20:42:51.204Z,2.70
2023-11-08T20:45:18.869Z,2.75
2023-11-08T20:47:47.126Z,2.70
2023-11-08T20:50:14.704Z,2.60
2023-11-08T20:52:42.785Z,2.38
2023-11-08T20:55:14.706Z,2.95
2023-11-08T20:57:45.262Z,2.72
2023-11-08T21:00:16.689Z,3.08
2023-11-08T21:02:44.490Z,3.00
2023-11-08T21:05:14.877Z,2.65
2023-11-08T21:07:44.174Z,2.85
2023-11-08T21:12:44.016Z,2.40
2023-11-08T21:15:11.560Z,3.15
2023-11-08T21:17:41.809Z,2.45
2023-11-08T21:20:10.584Z,3.28
2023-11-08T21:22:38.702Z,2.83
2023-11-08T21:25:06.323Z,2.80
2023-11-08T21:27:34.033Z,2.88
2023-11-08T21:30:01.585Z,2.67
2023-11-08T21:32:29.330Z,2.60
2023-11-08T21:34:57.594Z,3.00
2023-11-08T21:37:25.252Z,2.67
2023-11-08T21:39:53.533Z,3.08
2023-11-08T21:42:21.204Z,2.80
2023-11-08T21:44:49.649Z,2.70
2023-11-08T21:47:17.288Z,3.30
2023-11-08T21:49:44.807Z,2.72
2023-11-08T21:52:12.467Z,2.97
2023-11-08T21:54:42.806Z,2.90
2023-11-08T21:57:11.576Z,3.20
2023-11-08T21:59:39.087Z,2.95
2023-11-08T22:02:08.117Z,2.90
2023-11-08T22:04:36.662Z,2.88
2023-11-08T22:07:04.719Z,3.10
2023-11-08T22:09:32.541Z,3.05
2023-11-08T22:12:00.200Z,3.30
2023-11-08T22:14:27.701Z,3.75
2023-11-08T22:16:57.834Z,3.38
2023-11-08T22:19:26.676Z,3.45
2023-11-08T22:21:54.707Z,3.53
2023-11-08T22:24:22.098Z,3.20
2023-11-08T22:26:49.694Z,2.88
2023-11-08T22:29:18.002Z,3.40
2023-11-08T22:31:45.553Z,3.78
2023-11-08T22:34:15.267Z,4.20
2023-11-08T22:36:45.209Z,4.30
2023-11-08T22:39:13.235Z,3.50
2023-11-08T22:41:46.000Z,3.27
2023-11-08T22:44:13.531Z,3.43
2023-11-08T22:46:41.165Z,3.72
2023-11-08T22:49:08.773Z,3.35
2023-11-08T22:51:38.662Z,3.30
2023-11-08T22:54:07.719Z,3.30
2023-11-08T22:56:35.642Z,3.08
2023-11-08T22:59:03.574Z,3.22
2023-11-08T23:01:34.175Z,3.15
2023-11-08T23:04:07.930Z,2.92
2023-11-08T23:06:35.654Z,2.88
2023-11-08T23:09:05.307Z,2.97
2023-11-08T23:11:34.074Z,3.28
2023-11-08T23:14:01.575Z,3.03
2023-11-08T23:16:29.439Z,2.97
2023-11-08T23:18:56.957Z,2.70
2023-11-08T23:21:25.980Z,2.70
2023-11-08T23:23:53.483Z,2.47
2023-11-08T23:26:24.078Z,3.15
2023-11-08T23:28:51.841Z,2.83
2023-11-08T23:31:20.882Z,2.90
2023-11-08T23:33:50.849Z,3.22
2023-11-08T23:36:18.554Z,2.65
2023-11-08T23:38:46.203Z,2.85
2023-11-08T23:41:13.838Z,3.08
2023-11-08T23:43:41.310Z,2.95
2023-11-08T23:46:08.874Z,2.95
2023-11-08T23:48:37.861Z,3.20
2023-11-08T23:51:05.449Z,3.38
2023-11-08T23:53:33.016Z,2.90
2023-11-08T23:56:04.006Z,3.20
2023-11-08T23:58:31.550Z,3.10
